Time;durP1;ratioP1;P1;durP2;ratioP2;P2;SDS_P1;SDS_P2;PMS_P1;PMS_P2;Temp;Humidity;BMP_temperature;BMP_pressure;BME280_temperature;BME280_humidity;BME280_pressure;Samples;Min_cycle;Max_cycle;Signal;HPM_P1;HPM_P2
2021/10/31 00:01:18;;;;;;;31.80;19.27;;;11.80;99.90;;;;;;5069999;28;20044;-69
2021/10/31 00:04:22;;;;;;;33.35;18.92;;;11.70;99.90;;;;;;5071447;28;20048;-69
2021/10/31 00:07:26;;;;;;;38.25;21.27;;;11.70;99.90;;;;;;5070448;28;20044;-67
2021/10/31 00:10:30;;;;;;;39.65;24.35;;;11.70;99.90;;;;;;5070333;28;20059;-69
2021/10/31 00:13:35;;;;;;;37.00;22.17;;;11.70;99.90;;;;;;5069913;28;20064;-69
2021/10/31 00:16:39;;;;;;;33.10;21.23;;;11.70;99.90;;;;;;5069706;28;20494;-69
2021/10/31 00:19:44;;;;;;;35.50;20.67;;;11.70;99.90;;;;;;5069658;28;20039;-69
2021/10/31 00:22:48;;;;;;;33.40;20.27;;;11.60;99.90;;;;;;5069909;28;20044;-69
2021/10/31 00:25:53;;;;;;;32.55;17.38;;;11.70;99.90;;;;;;5069282;28;20051;-69
2021/10/31 00:28:57;;;;;;;23.33;15.23;;;11.70;99.90;;;;;;5069308;28;20040;-69
2021/10/31 00:32:01;;;;;;;31.35;15.15;;;11.80;99.90;;;;;;5069467;28;20047;-69
2021/10/31 00:35:05;;;;;;;26.67;16.55;;;11.70;99.90;;;;;;5069987;28;20063;-67
2021/10/31 00:38:11;;;;;;;27.63;16.27;;;11.70;99.90;;;;;;5070912;28;20501;-69
2021/10/31 00:41:14;;;;;;;29.85;16.48;;;11.70;99.90;;;;;;5069703;28;20035;-66
2021/10/31 00:44:19;;;;;;;30.98;18.38;;;11.80;99.90;;;;;;5070586;28;20068;-66
2021/10/31 00:47:23;;;;;;;26.25;16.08;;;11.70;99.90;;;;;;5074388;28;20059;-66
2021/10/31 00:50:27;;;;;;;32.60;20.13;;;11.70;99.90;;;;;;5073380;28;20390;-69
2021/10/31 00:53:31;;;;;;;27.80;16.70;;;11.70;99.90;;;;;;5073378;28;20402;-66
2021/10/31 00:56:36;;;;;;;32.13;18.88;;;11.70;99.90;;;;;;5074056;28;20043;-69
2021/10/31 00:59:40;;;;;;;28.73;18.73;;;11.60;99.90;;;;;;5073138;28;20044;-67
2021/10/31 01:02:44;;;;;;;29.77;18.40;;;11.60;99.90;;;;;;5074248;28;20106;-69
2021/10/31 01:05:53;;;;;;;29.48;19.17;;;11.60;99.90;;;;;;5072669;28;20047;-69
2021/10/31 01:09:19;;;;;;;30.10;17.55;;;11.50;99.90;;;;;;5072075;28;20107;-69
2021/10/31 01:12:33;;;;;;;29.40;17.63;;;11.50;99.90;;;;;;5073191;28;20040;-69
2021/10/31 01:16:11;;;;;;;27.25;17.80;;;11.50;99.90;;;;;;5072720;28;20059;-69
2021/10/31 01:19:43;;;;;;;26.65;16.98;;;11.40;99.90;;;;;;5072433;28;20055;-69
2021/10/31 01:22:59;;;;;;;27.98;16.77;;;11.40;99.90;;;;;;5072959;28;20055;-69
2021/10/31 01:26:12;;;;;;;25.92;16.00;;;11.30;99.90;;;;;;5072420;28;20051;-69
2021/10/31 01:29:28;;;;;;;22.63;15.93;;;11.30;99.90;;;;;;5072429;28;20039;-69
2021/10/31 01:32:50;;;;;;;24.20;15.60;;;11.30;99.90;;;;;;5072913;28;20043;-69
2021/10/31 01:36:20;;;;;;;28.08;17.67;;;11.30;99.90;;;;;;5072229;28;20047;-69
2021/10/31 01:39:39;;;;;;;23.88;15.05;;;11.30;99.90;;;;;;5072075;28;20036;-69
2021/10/31 01:43:05;;;;;;;28.00;15.65;;;11.30;99.90;;;;;;5071476;28;20052;-67
2021/10/31 01:46:26;;;;;;;28.17;15.88;;;11.20;99.90;;;;;;5072007;28;20060;-66
2021/10/31 01:49:50;;;;;;;25.85;14.82;;;11.20;99.90;;;;;;5071452;28;20498;-69
2021/10/31 01:53:10;;;;;;;22.25;15.48;;;11.20;99.90;;;;;;5072040;28;20039;-69
2021/10/31 01:56:18;;;;;;;24.33;14.98;;;11.10;99.90;;;;;;5072437;28;20048;-69
2021/10/31 01:59:33;;;;;;;29.40;18.02;;;11.10;99.90;;;;;;5073373;28;20097;-67
2021/10/31 02:02:45;;;;;;;32.20;20.58;;;11.10;99.90;;;;;;5072795;28;20383;-67
2021/10/31 02:05:50;;;;;;;29.83;18.15;;;11.00;99.90;;;;;;5072369;28;20043;-66
2021/10/31 02:08:57;;;;;;;27.35;17.92;;;10.90;99.90;;;;;;5071584;28;20035;-66
2021/10/31 02:12:05;;;;;;;33.20;20.38;;;10.90;99.90;;;;;;5073683;28;20391;-66
2021/10/31 02:15:15;;;;;;;36.65;21.00;;;10.80;99.90;;;;;;5072072;28;20043;-66
2021/10/31 02:18:22;;;;;;;34.45;21.20;;;10.80;99.90;;;;;;5070984;28;20063;-66
2021/10/31 02:21:28;;;;;;;39.75;20.77;;;10.70;99.90;;;;;;5071557;28;20590;-66
2021/10/31 02:24:34;;;;;;;35.92;20.85;;;10.60;99.90;;;;;;5071179;28;20051;-67
2021/10/31 02:27:42;;;;;;;30.90;19.67;;;10.50;99.90;;;;;;5070449;28;20557;-67
2021/10/31 02:30:48;;;;;;;42.53;26.55;;;10.50;99.90;;;;;;5071433;28;20317;-66
2021/10/31 02:33:52;;;;;;;49.80;30.67;;;10.50;99.90;;;;;;5072164;28;20055;-69
2021/10/31 02:36:56;;;;;;;40.60;26.75;;;10.60;99.90;;;;;;5071043;28;20094;-69
2021/10/31 02:40:00;;;;;;;42.80;27.80;;;10.70;99.90;;;;;;5070688;28;20387;-69
2021/10/31 02:43:05;;;;;;;47.35;29.33;;;10.70;99.90;;;;;;5071268;28;20490;-66
2021/10/31 02:46:10;;;;;;;38.15;26.35;;;10.60;99.90;;;;;;5070972;28;20040;-69
2021/10/31 02:49:14;;;;;;;46.38;28.83;;;10.60;99.90;;;;;;5070782;28;20485;-69
2021/10/31 02:52:27;;;;;;;37.97;23.38;;;10.50;99.90;;;;;;5071036;28;20047;-69
2021/10/31 02:55:40;;;;;;;39.78;25.58;;;10.50;99.90;;;;;;5070730;28;20067;-69
2021/10/31 02:58:50;;;;;;;48.95;29.38;;;10.40;99.90;;;;;;5070129;28;20036;-69
2021/10/31 03:01:58;;;;;;;43.75;28.83;;;10.40;99.90;;;;;;5069975;28;20118;-69
2021/10/31 03:05:02;;;;;;;50.45;31.05;;;10.40;99.90;;;;;;5070756;28;20043;-66
2021/10/31 03:08:06;;;;;;;62.47;38.20;;;10.40;99.90;;;;;;5069055;28;20048;-68
2021/10/31 03:11:11;;;;;;;67.90;42.38;;;10.40;99.90;;;;;;5070787;28;20111;-69
2021/10/31 03:14:15;;;;;;;62.13;39.97;;;10.50;99.90;;;;;;5070043;28;20043;-69
2021/10/31 03:17:19;;;;;;;62.67;38.67;;;10.50;99.90;;;;;;5071269;28;20044;-66
2021/10/31 03:20:23;;;;;;;55.42;36.53;;;10.40;99.90;;;;;;5070583;28;20040;-66
2021/10/31 03:23:28;;;;;;;52.83;31.95;;;10.30;99.90;;;;;;5071822;28;20043;-66
2021/10/31 03:26:33;;;;;;;53.53;33.60;;;10.30;99.90;;;;;;5070691;28;20056;-69
2021/10/31 03:29:37;;;;;;;49.67;30.30;;;10.40;99.90;;;;;;5070622;28;20048;-69
2021/10/31 03:32:41;;;;;;;49.45;30.13;;;10.40;99.90;;;;;;5070863;28;20255;-69
2021/10/31 03:35:45;;;;;;;56.92;33.47;;;10.40;99.90;;;;;;5071608;28;20064;-68
2021/10/31 03:38:49;;;;;;;68.95;39.63;;;10.40;99.90;;;;;;5070720;28;20341;-66
2021/10/31 03:41:53;;;;;;;70.18;38.75;;;10.30;99.90;;;;;;5072248;28;20043;-69
2021/10/31 03:44:58;;;;;;;55.97;32.53;;;10.30;99.90;;;;;;5070366;28;20060;-66
2021/10/31 03:48:03;;;;;;;51.00;31.27;;;10.10;99.90;;;;;;5070554;28;20218;-66
2021/10/31 03:51:07;;;;;;;51.92;33.50;;;10.10;99.90;;;;;;5070330;28;20039;-66
2021/10/31 03:54:12;;;;;;;54.50;30.83;;;10.00;99.90;;;;;;5070214;28;20047;-69
2021/10/31 03:57:17;;;;;;;44.15;26.75;;;9.90;99.90;;;;;;5070165;28;20052;-69
2021/10/31 04:00:21;;;;;;;51.58;31.30;;;9.90;99.90;;;;;;5069855;28;20063;-68
2021/10/31 04:03:26;;;;;;;53.67;32.20;;;9.80;99.90;;;;;;5070087;28;20052;-69
2021/10/31 04:06:30;;;;;;;53.47;32.08;;;9.80;99.90;;;;;;5069685;28;20044;-69
2021/10/31 04:09:34;;;;;;;51.78;31.65;;;9.70;99.90;;;;;;5069549;28;20036;-69
2021/10/31 04:12:38;;;;;;;54.67;31.35;;;9.70;99.90;;;;;;5070285;28;20048;-69
2021/10/31 04:15:42;;;;;;;50.67;30.60;;;9.60;99.90;;;;;;5069971;28;20391;-69
2021/10/31 04:18:47;;;;;;;51.97;32.35;;;9.60;99.90;;;;;;5069450;28;20051;-69
2021/10/31 04:21:50;;;;;;;52.42;31.65;;;9.70;99.90;;;;;;5073345;28;20051;-66
2021/10/31 04:24:54;;;;;;;59.67;34.35;;;9.60;99.90;;;;;;5073513;28;20063;-66
2021/10/31 04:27:58;;;;;;;60.60;35.65;;;9.50;99.90;;;;;;5074606;28;20493;-66
2021/10/31 04:31:02;;;;;;;65.03;39.08;;;9.50;99.90;;;;;;5073542;28;20382;-66
2021/10/31 04:34:06;;;;;;;70.53;40.92;;;9.30;99.90;;;;;;5074410;28;20039;-66
2021/10/31 04:37:11;;;;;;;69.28;42.85;;;9.30;99.90;;;;;;5073834;28;20390;-69
2021/10/31 04:40:17;;;;;;;61.25;37.42;;;9.40;99.90;;;;;;5071791;28;20036;-69
2021/10/31 04:43:23;;;;;;;61.70;37.58;;;9.40;99.90;;;;;;5073466;28;20043;-69
2021/10/31 04:46:27;;;;;;;62.40;36.65;;;9.40;99.90;;;;;;5072965;28;20502;-69
2021/10/31 04:49:33;;;;;;;60.25;36.92;;;9.30;99.90;;;;;;5072453;28;20036;-69
2021/10/31 04:52:37;;;;;;;61.92;38.70;;;9.30;99.90;;;;;;5073126;28;20039;-66
2021/10/31 04:55:42;;;;;;;71.38;42.78;;;9.40;99.90;;;;;;5073255;28;20494;-66
2021/10/31 04:58:45;;;;;;;70.03;42.28;;;9.40;99.90;;;;;;5072939;28;20047;-66
2021/10/31 05:01:49;;;;;;;69.60;42.90;;;9.40;99.90;;;;;;5073027;28;20509;-66
2021/10/31 05:04:53;;;;;;;70.88;42.88;;;9.50;99.90;;;;;;5073076;28;20047;-66
2021/10/31 05:08:01;;;;;;;70.80;41.78;;;9.50;99.90;;;;;;5072963;28;20044;-66
2021/10/31 05:11:05;;;;;;;69.47;42.75;;;9.50;99.90;;;;;;5072819;28;20044;-66
2021/10/31 05:14:09;;;;;;;71.65;40.72;;;9.50;99.90;;;;;;5072843;28;20052;-66
2021/10/31 05:17:14;;;;;;;67.88;39.03;;;9.60;99.90;;;;;;5072721;28;20047;-69
2021/10/31 05:20:18;;;;;;;63.78;37.13;;;9.60;99.90;;;;;;5072514;28;20043;-66
2021/10/31 05:23:23;;;;;;;56.45;35.75;;;9.60;99.90;;;;;;5073100;28;20044;-66
2021/10/31 05:26:27;;;;;;;66.57;38.60;;;9.60;99.90;;;;;;5072859;28;20044;-69
2021/10/31 05:29:33;;;;;;;60.60;36.13;;;9.50;99.90;;;;;;5072563;28;20036;-66
2021/10/31 05:32:38;;;;;;;65.85;41.10;;;9.40;99.90;;;;;;5069773;28;20407;-66
2021/10/31 05:35:43;;;;;;;96.72;43.78;;;9.10;99.90;;;;;;5072461;28;20508;-66
2021/10/31 05:38:47;;;;;;;64.78;38.50;;;8.70;99.90;;;;;;5072171;28;20394;-69
2021/10/31 05:41:51;;;;;;;70.18;41.58;;;8.60;99.90;;;;;;5071571;28;20043;-69
2021/10/31 05:44:56;;;;;;;175.52;44.42;;;8.50;99.90;;;;;;5071985;28;20390;-68
2021/10/31 05:48:00;;;;;;;78.13;40.80;;;8.50;99.90;;;;;;5071880;28;20068;-69
2021/10/31 05:51:04;;;;;;;75.53;45.10;;;8.40;99.90;;;;;;5071822;28;20039;-69
2021/10/31 05:54:08;;;;;;;69.80;42.42;;;8.40;99.90;;;;;;5072026;28;20047;-69
2021/10/31 05:57:13;;;;;;;63.22;35.63;;;8.40;99.90;;;;;;5071839;28;20060;-69
2021/10/31 06:00:18;;;;;;;54.63;33.50;;;8.50;99.90;;;;;;5071394;28;20052;-69
2021/10/31 06:03:23;;;;;;;50.78;30.50;;;8.60;99.90;;;;;;5071894;28;20063;-66
2021/10/31 06:06:27;;;;;;;55.50;30.88;;;8.60;99.90;;;;;;5072585;28;20498;-66
2021/10/31 06:09:31;;;;;;;46.75;24.95;;;8.60;99.90;;;;;;5071270;28;20051;-68
2021/10/31 06:12:36;;;;;;;46.45;25.65;;;8.70;99.90;;;;;;5071664;28;20039;-66
2021/10/31 06:15:41;;;;;;;45.30;24.92;;;8.80;99.90;;;;;;5071494;28;20048;-66
2021/10/31 06:18:45;;;;;;;42.92;25.85;;;9.00;99.90;;;;;;5071950;28;20047;-66
2021/10/31 06:21:49;;;;;;;34.83;21.98;;;9.10;99.90;;;;;;5071271;28;20386;-66
2021/10/31 06:24:53;;;;;;;43.47;25.30;;;9.20;99.90;;;;;;5071433;28;20048;-66
2021/10/31 06:27:57;;;;;;;47.05;27.10;;;9.30;99.90;;;;;;5071452;28;20039;-66
2021/10/31 06:31:01;;;;;;;43.80;26.23;;;9.50;99.90;;;;;;5071995;28;20398;-66
2021/10/31 06:34:06;;;;;;;43.35;25.63;;;9.70;99.90;;;;;;5071671;28;20048;-66
2021/10/31 06:37:10;;;;;;;37.75;23.00;;;9.90;99.90;;;;;;5070889;28;20055;-66
2021/10/31 06:40:14;;;;;;;36.10;22.58;;;10.60;99.90;;;;;;5070707;28;20498;-66
2021/10/31 06:43:18;;;;;;;29.25;18.30;;;12.70;99.90;;;;;;5071149;28;20489;-69
2021/10/31 06:46:23;;;;;;;27.33;16.75;;;14.50;99.90;;;;;;5071473;28;20261;-69
2021/10/31 06:49:28;;;;;;;26.27;16.90;;;16.70;99.90;;;;;;5070665;28;20043;-69
2021/10/31 06:52:32;;;;;;;24.45;15.65;;;18.50;99.90;;;;;;5070941;28;20056;-69
2021/10/31 06:55:37;;;;;;;27.17;16.27;;;18.20;99.90;;;;;;5070988;28;20040;-69
2021/10/31 06:58:41;;;;;;;23.55;16.17;;;17.60;99.90;;;;;;5070369;28;20051;-69
2021/10/31 07:01:46;;;;;;;23.77;15.27;;;17.40;99.90;;;;;;5070565;28;20047;-66
2021/10/31 07:04:49;;;;;;;25.60;16.15;;;17.40;99.90;;;;;;5070808;28;20055;-66
2021/10/31 07:07:54;;;;;;;23.30;15.10;;;17.40;99.90;;;;;;5071461;28;20055;-66
2021/10/31 07:11:00;;;;;;;21.58;14.88;;;17.00;99.90;;;;;;5071033;28;20268;-66
2021/10/31 07:14:04;;;;;;;16.58;11.27;;;16.30;99.90;;;;;;5071023;28;20039;-67
2021/10/31 07:17:09;;;;;;;19.73;10.10;;;17.50;99.90;;;;;;5069840;28;20048;-66
2021/10/31 07:20:13;;;;;;;15.00;10.13;;;19.30;99.90;;;;;;5070208;28;20043;-67
2021/10/31 07:23:18;;;;;;;15.15;10.02;;;20.70;99.90;;;;;;5070540;28;20059;-67
2021/10/31 07:26:22;;;;;;;15.95;9.43;;;22.30;97.40;;;;;;5071252;28;20051;-69
2021/10/31 07:29:27;;;;;;;11.32;8.35;;;24.40;94.90;;;;;;5071314;28;20391;-70
2021/10/31 07:32:31;;;;;;;15.40;11.07;;;26.00;91.90;;;;;;5070399;28;20505;-69
2021/10/31 07:35:35;;;;;;;16.65;12.38;;;24.00;91.70;;;;;;5070745;28;20060;-70
2021/10/31 07:38:42;;;;;;;16.20;11.00;;;24.10;92.20;;;;;;5069864;28;20047;-67
2021/10/31 07:41:49;;;;;;;16.02;10.60;;;25.40;91.00;;;;;;5071554;28;20482;-70
2021/10/31 07:44:54;;;;;;;16.33;12.32;;;26.00;90.00;;;;;;5070630;28;20044;-67
2021/10/31 07:48:00;;;;;;;16.08;12.43;;;23.00;91.60;;;;;;5070269;28;20043;-68
2021/10/31 07:51:04;;;;;;;23.42;14.00;;;21.80;92.60;;;;;;5070053;28;20043;-68
2021/10/31 07:54:10;;;;;;;17.98;12.70;;;20.40;94.40;;;;;;5070224;28;20088;-67
2021/10/31 07:57:17;;;;;;;18.15;11.73;;;20.10;95.80;;;;;;5074325;28;20582;-69
2021/10/31 08:00:22;;;;;;;15.00;10.93;;;20.50;95.00;;;;;;5073832;28;20071;-69
2021/10/31 08:03:26;;;;;;;14.85;9.85;;;21.60;93.60;;;;;;5074236;28;20047;-70
2021/10/31 08:06:30;;;;;;;12.90;9.68;;;21.50;93.70;;;;;;5074139;28;20039;-70
2021/10/31 08:09:34;;;;;;;13.48;9.85;;;20.90;94.30;;;;;;5074062;28;20048;-69
2021/10/31 08:12:39;;;;;;;14.52;10.38;;;20.60;94.20;;;;;;5073974;28;20051;-69
2021/10/31 08:15:43;;;;;;;16.40;11.52;;;20.30;95.10;;;;;;5074290;28;20044;-69
2021/10/31 08:18:47;;;;;;;18.33;10.32;;;19.80;95.50;;;;;;5073300;28;20035;-69
2021/10/31 08:21:53;;;;;;;18.75;10.73;;;19.50;96.00;;;;;;5074064;28;20127;-69
2021/10/31 08:24:57;;;;;;;14.32;10.35;;;19.30;96.40;;;;;;5074005;28;20047;-69
2021/10/31 08:28:05;;;;;;;15.88;10.50;;;19.30;96.30;;;;;;5073704;28;20055;-67
2021/10/31 08:31:09;;;;;;;15.25;9.90;;;19.00;96.60;;;;;;5073697;28;20333;-67
2021/10/31 08:34:13;;;;;;;18.95;11.50;;;18.60;97.10;;;;;;5073836;28;20317;-67
2021/10/31 08:37:17;;;;;;;19.95;11.63;;;16.80;99.20;;;;;;5073224;28;20043;-66
2021/10/31 08:40:21;;;;;;;17.63;11.27;;;16.20;99.90;;;;;;5073131;28;20048;-67
2021/10/31 08:43:25;;;;;;;19.38;11.18;;;15.70;99.90;;;;;;5073391;28;20043;-67
2021/10/31 08:46:30;;;;;;;17.25;10.98;;;16.10;99.90;;;;;;5073510;28;20403;-67
2021/10/31 08:49:35;;;;;;;16.10;9.68;;;16.90;99.90;;;;;;5072962;28;20501;-67
2021/10/31 08:52:42;;;;;;;15.05;9.10;;;19.40;99.90;;;;;;5073153;28;20051;-65
2021/10/31 08:55:47;;;;;;;14.38;9.45;;;23.30;94.30;;;;;;5073595;28;20047;-70
2021/10/31 08:58:51;;;;;;;12.90;9.45;;;26.00;90.10;;;;;;5072580;28;20465;-67
2021/10/31 09:01:55;;;;;;;11.55;8.85;;;27.30;85.70;;;;;;5072868;28;20051;-67
2021/10/31 09:04:59;;;;;;;12.68;9.50;;;24.20;86.60;;;;;;5072873;28;20063;-69
2021/10/31 09:08:05;;;;;;;13.27;10.25;;;21.60;90.50;;;;;;5072243;28;20051;-69
2021/10/31 09:11:09;;;;;;;12.63;9.25;;;21.10;91.90;;;;;;5072808;28;20051;-70
2021/10/31 09:14:15;;;;;;;13.27;8.35;;;22.50;92.30;;;;;;5073290;28;20051;-69
2021/10/31 09:17:20;;;;;;;13.20;8.38;;;25.10;89.30;;;;;;5072403;28;20051;-70
2021/10/31 09:20:27;;;;;;;10.23;7.95;;;25.60;86.20;;;;;;5073149;28;20047;-67
2021/10/31 09:23:32;;;;;;;10.40;7.55;;;28.70;82.40;;;;;;5072354;28;20386;-66
2021/10/31 09:26:36;;;;;;;9.60;7.60;;;31.70;77.70;;;;;;5072702;28;20039;-66
2021/10/31 09:29:40;;;;;;;10.23;7.60;;;34.20;72.40;;;;;;5072016;28;20387;-66
2021/10/31 09:32:46;;;;;;;11.48;7.78;;;35.40;68.90;;;;;;5072793;28;20047;-66
2021/10/31 09:35:55;;;;;;;11.10;7.35;;;36.00;65.90;;;;;;5072242;28;20494;-66
2021/10/31 09:38:59;;;;;;;7.13;6.35;;;36.60;64.30;;;;;;5072061;28;20027;-67
2021/10/31 09:42:03;;;;;;;9.40;5.93;;;37.50;62.80;;;;;;5072406;28;20051;-66
2021/10/31 09:45:10;;;;;;;6.93;5.90;;;38.20;60.60;;;;;;5072606;28;20063;-66
2021/10/31 09:48:16;;;;;;;5.95;4.95;;;39.00;58.80;;;;;;5071933;28;20040;-66
2021/10/31 09:51:21;;;;;;;6.93;5.13;;;38.80;59.10;;;;;;5073305;28;20383;-68
2021/10/31 09:54:26;;;;;;;9.45;6.45;;;39.80;58.20;;;;;;5071961;28;20047;-68
2021/10/31 09:57:32;;;;;;;7.97;5.68;;;40.30;56.30;;;;;;5072421;28;20059;-69
2021/10/31 10:00:44;;;;;;;10.13;6.43;;;39.20;57.10;;;;;;5071820;28;20398;-69
2021/10/31 10:03:56;;;;;;;11.02;6.78;;;32.40;58.00;;;;;;5072298;28;20044;-69
2021/10/31 10:07:03;;;;;;;10.27;7.03;;;30.20;62.60;;;;;;5073252;28;20040;-69
2021/10/31 10:10:13;;;;;;;11.18;6.78;;;27.40;67.50;;;;;;5071467;28;20036;-68
2021/10/31 10:13:20;;;;;;;10.20;6.30;;;30.10;64.80;;;;;;5071926;28;20043;-68
2021/10/31 10:16:24;;;;;;;9.07;5.82;;;32.60;63.20;;;;;;5071603;28;20052;-68
2021/10/31 10:19:58;;;;;;;8.57;5.88;;;35.20;60.10;;;;;;5071075;28;20493;-68
2021/10/31 10:23:10;;;;;;;11.00;7.18;;;32.80;61.80;;;;;;5071668;28;20426;-68
2021/10/31 10:26:24;;;;;;;7.90;6.97;;;30.10;63.60;;;;;;5071273;28;20035;-68
2021/10/31 10:29:31;;;;;;;6.90;5.80;;;32.20;62.70;;;;;;5070387;28;20047;-68
2021/10/31 10:32:35;;;;;;;9.05;7.20;;;33.90;61.10;;;;;;5071359;28;20036;-68
2021/10/31 10:35:41;;;;;;;8.50;6.25;;;34.00;60.00;;;;;;5071357;28;20043;-68
2021/10/31 10:39:02;;;;;;;7.82;5.90;;;34.00;60.70;;;;;;5070712;28;20498;-69
2021/10/31 10:42:07;;;;;;;7.50;6.07;;;35.70;59.90;;;;;;5071361;28;20043;-69
2021/10/31 10:45:16;;;;;;;12.60;6.22;;;37.70;58.50;;;;;;5071340;28;20047;-69
2021/10/31 10:48:20;;;;;;;9.52;6.93;;;38.30;57.00;;;;;;5071571;28;20051;-69
2021/10/31 10:51:24;;;;;;;8.60;7.18;;;34.40;57.90;;;;;;5071489;28;20047;-66
2021/10/31 10:54:28;;;;;;;7.47;6.20;;;31.50;61.20;;;;;;5071062;28;20411;-66
2021/10/31 10:57:35;;;;;;;9.45;7.00;;;34.10;60.70;;;;;;5071542;28;20059;-67
2021/10/31 11:00:46;;;;;;;8.23;7.13;;;31.50;62.00;;;;;;5070665;28;20387;-66
2021/10/31 11:03:51;;;;;;;12.80;7.75;;;34.10;61.20;;;;;;5070656;28;20066;-66
2021/10/31 11:06:55;;;;;;;9.73;7.50;;;31.50;60.60;;;;;;5070721;28;20047;-66
2021/10/31 11:10:00;;;;;;;11.73;7.47;;;33.40;62.10;;;;;;5069856;28;20040;-66
2021/10/31 11:13:06;;;;;;;10.43;8.52;;;35.60;60.00;;;;;;5071161;28;20229;-66
2021/10/31 11:16:12;;;;;;;10.60;8.45;;;32.80;61.30;;;;;;5071414;28;20043;-65
2021/10/31 11:19:17;;;;;;;10.60;8.43;;;34.20;61.00;;;;;;5070651;28;20047;-68
2021/10/31 11:22:23;;;;;;;10.57;8.57;;;32.40;62.30;;;;;;5071228;28;20031;-66
2021/10/31 11:25:30;;;;;;;12.98;9.57;;;31.20;64.50;;;;;;5069711;28;20055;-66
2021/10/31 11:28:34;;;;;;;13.02;9.80;;;32.80;62.70;;;;;;5070579;28;20043;-67
2021/10/31 11:31:39;;;;;;;10.55;8.73;;;33.20;62.90;;;;;;5070826;28;20039;-66
2021/10/31 11:34:46;;;;;;;11.90;8.82;;;32.80;62.10;;;;;;5070613;28;20387;-66
2021/10/31 11:38:15;;;;;;;12.55;8.25;;;34.80;61.40;;;;;;5070510;28;20052;-66
2021/10/31 11:41:22;;;;;;;12.13;8.70;;;32.30;62.40;;;;;;5070936;28;20102;-66
2021/10/31 11:44:29;;;;;;;11.50;8.35;;;30.00;63.10;;;;;;5069918;28;20051;-65
2021/10/31 11:47:35;;;;;;;11.32;8.55;;;30.30;66.30;;;;;;5070396;28;20514;-66
2021/10/31 11:50:41;;;;;;;13.13;8.52;;;30.30;64.50;;;;;;5070259;28;20043;-66
2021/10/31 11:53:48;;;;;;;10.93;9.05;;;30.60;64.00;;;;;;5070749;28;20051;-66
2021/10/31 11:56:54;;;;;;;15.32;8.82;;;27.90;66.70;;;;;;5068947;28;20047;-65
2021/10/31 12:00:15;;;;;;;9.27;7.97;;;29.00;67.80;;;;;;5070552;28;20055;-66
2021/10/31 12:03:43;;;;;;;14.32;7.55;;;28.30;66.50;;;;;;5070013;28;20497;-66
2021/10/31 12:06:49;;;;;;;9.65;7.03;;;29.80;65.70;;;;;;5070084;28;20044;-66
2021/10/31 12:09:58;;;;;;;6.70;6.00;;;30.50;65.60;;;;;;5069498;28;20039;-66
2021/10/31 12:13:16;;;;;;;8.43;6.07;;;30.80;64.40;;;;;;5069987;28;20418;-66
2021/10/31 12:16:20;;;;;;;7.53;5.30;;;33.20;61.30;;;;;;5069838;28;20040;-66
2021/10/31 12:19:34;;;;;;;7.65;4.57;;;34.80;60.10;;;;;;5070196;28;20478;-66
2021/10/31 12:22:39;;;;;;;6.80;4.25;;;29.50;60.00;;;;;;5070219;28;20052;-66
2021/10/31 12:25:44;;;;;;;8.48;5.07;;;28.00;64.30;;;;;;5069948;28;20031;-66
2021/10/31 12:28:51;;;;;;;12.15;5.25;;;26.10;66.20;;;;;;5069589;28;20044;-68
2021/10/31 12:32:04;;;;;;;8.07;5.90;;;24.10;70.10;;;;;;5069829;28;20040;-69
2021/10/31 12:35:29;;;;;;;11.35;5.82;;;23.00;70.90;;;;;;5069765;28;20047;-68
2021/10/31 12:38:34;;;;;;;9.15;6.32;;;23.00;71.40;;;;;;5069801;28;20052;-68
2021/10/31 12:42:23;;;;;;;12.20;6.38;;;21.70;75.40;;;;;;5070421;28;20055;-67
2021/10/31 12:45:29;;;;;;;8.30;6.20;;;21.60;77.90;;;;;;5074026;28;20043;-68
2021/10/31 12:48:36;;;;;;;12.88;7.20;;;21.70;76.50;;;;;;5073805;28;20047;-68
2021/10/31 12:51:50;;;;;;;10.43;6.97;;;20.80;78.20;;;;;;5073659;28;20403;-68
2021/10/31 12:54:59;;;;;;;12.27;7.47;;;19.80;80.80;;;;;;5072701;28;20040;-68
2021/10/31 12:58:07;;;;;;;11.32;7.32;;;19.70;81.60;;;;;;5073324;28;20486;-70
2021/10/31 13:01:17;;;;;;;11.02;7.43;;;19.50;83.20;;;;;;5073703;28;20039;-70
2021/10/31 13:04:21;;;;;;;13.98;7.65;;;19.30;84.10;;;;;;5073241;28;20035;-70
2021/10/31 13:07:46;;;;;;;15.68;7.68;;;19.40;86.20;;;;;;5073085;28;20056;-70
2021/10/31 13:10:53;;;;;;;13.88;8.35;;;18.90;87.20;;;;;;5073404;28;20044;-70
2021/10/31 13:13:57;;;;;;;13.13;7.40;;;18.90;88.00;;;;;;5074127;28;20043;-69
2021/10/31 13:17:06;;;;;;;13.15;8.73;;;18.70;89.00;;;;;;5073180;28;20043;-69
2021/10/31 13:20:19;;;;;;;15.32;7.60;;;18.60;90.60;;;;;;5072678;28;20095;-70
2021/10/31 13:23:25;;;;;;;12.93;7.75;;;18.50;91.00;;;;;;5072699;28;20059;-69
2021/10/31 13:26:30;;;;;;;14.15;8.40;;;18.60;91.20;;;;;;5073065;28;20528;-69
2021/10/31 13:29:42;;;;;;;13.23;8.18;;;18.80;91.20;;;;;;5072466;28;20039;-69
2021/10/31 13:32:48;;;;;;;13.10;7.80;;;18.70;91.80;;;;;;5072949;28;20041;-70
2021/10/31 13:35:52;;;;;;;10.40;7.78;;;18.60;92.00;;;;;;5073027;28;20051;-70
2021/10/31 13:39:04;;;;;;;12.73;8.23;;;18.40;92.80;;;;;;5071078;28;20044;-68
2021/10/31 13:42:11;;;;;;;9.77;7.03;;;18.50;92.90;;;;;;5072716;28;20052;-65
2021/10/31 13:45:18;;;;;;;11.98;7.95;;;18.50;93.10;;;;;;5072482;28;20044;-67
2021/10/31 13:48:30;;;;;;;11.15;7.95;;;18.60;93.20;;;;;;5071397;28;20056;-67
2021/10/31 13:51:44;;;;;;;14.07;7.70;;;19.00;93.00;;;;;;5071261;28;20047;-67
2021/10/31 13:54:49;;;;;;;12.68;7.82;;;19.70;92.60;;;;;;5072251;28;20043;-67
2021/10/31 13:57:54;;;;;;;10.52;8.35;;;20.40;91.50;;;;;;5071772;28;20044;-67
2021/10/31 14:00:58;;;;;;;10.38;7.82;;;20.40;91.40;;;;;;5072014;28;20051;-67
2021/10/31 14:04:06;;;;;;;19.00;8.82;;;20.10;91.80;;;;;;5071703;28;20040;-67
2021/10/31 14:07:12;;;;;;;15.60;9.95;;;19.90;92.20;;;;;;5071406;28;20052;-67
2021/10/31 14:10:21;;;;;;;12.85;9.75;;;19.70;92.30;;;;;;5071495;28;20059;-66
2021/10/31 14:13:25;;;;;;;18.48;10.25;;;19.50;92.70;;;;;;5071725;28;20386;-67
2021/10/31 14:16:30;;;;;;;15.13;8.98;;;19.30;93.00;;;;;;5070881;28;20059;-67
2021/10/31 14:19:35;;;;;;;11.60;8.43;;;19.00;93.70;;;;;;5071872;28;20048;-67
2021/10/31 14:22:45;;;;;;;15.73;8.88;;;18.80;94.10;;;;;;5071172;28;20051;-66
2021/10/31 14:25:50;;;;;;;12.00;7.90;;;18.70;94.60;;;;;;5071814;28;20490;-67
2021/10/31 14:28:54;;;;;;;14.32;9.27;;;18.50;94.80;;;;;;5070887;28;20052;-66
2021/10/31 14:31:59;;;;;;;11.93;8.27;;;18.40;95.40;;;;;;5070661;28;20044;-67
2021/10/31 14:35:04;;;;;;;14.55;9.15;;;18.20;95.90;;;;;;5071101;28;20383;-67
2021/10/31 14:38:10;;;;;;;12.55;8.18;;;18.20;96.10;;;;;;5070257;28;20051;-66
2021/10/31 14:41:22;;;;;;;15.38;8.65;;;18.30;96.00;;;;;;5071061;28;20059;-67
2021/10/31 14:44:37;;;;;;;16.50;9.23;;;18.40;95.80;;;;;;5071214;28;20048;-67
2021/10/31 14:47:42;;;;;;;12.70;8.63;;;18.50;95.90;;;;;;5070503;28;20043;-67
2021/10/31 14:50:46;;;;;;;18.13;10.27;;;18.60;96.20;;;;;;5071010;28;20044;-67
2021/10/31 14:53:58;;;;;;;16.75;10.15;;;18.60;96.30;;;;;;5070839;28;20477;-67
2021/10/31 14:57:07;;;;;;;19.35;10.10;;;18.60;96.70;;;;;;5070987;28;20043;-67
2021/10/31 15:00:16;;;;;;;18.38;10.43;;;18.70;96.80;;;;;;5071179;28;20051;-67
2021/10/31 15:03:21;;;;;;;17.17;10.73;;;18.80;97.20;;;;;;5071177;28;20051;-67
2021/10/31 15:06:25;;;;;;;18.70;11.02;;;18.80;96.90;;;;;;5070911;28;20048;-67
2021/10/31 15:09:29;;;;;;;14.10;10.02;;;18.80;97.00;;;;;;5070335;28;20048;-67
2021/10/31 15:12:34;;;;;;;15.70;9.70;;;18.90;96.80;;;;;;5071006;28;20060;-67
2021/10/31 15:15:38;;;;;;;11.50;8.60;;;18.90;96.70;;;;;;5070721;28;20490;-67
2021/10/31 15:18:42;;;;;;;14.32;9.18;;;18.80;96.70;;;;;;5069144;28;20047;-67
2021/10/31 15:21:47;;;;;;;18.60;9.68;;;18.70;97.10;;;;;;5070576;28;20063;-67
2021/10/31 15:24:52;;;;;;;16.95;10.27;;;18.50;97.50;;;;;;5070632;28;20055;-67
2021/10/31 15:27:56;;;;;;;12.98;8.52;;;18.50;97.80;;;;;;5070313;28;20044;-67
2021/10/31 15:31:00;;;;;;;12.38;9.18;;;18.50;97.80;;;;;;5070564;28;20047;-67
2021/10/31 15:34:04;;;;;;;13.45;10.07;;;18.40;97.90;;;;;;5070533;28;20043;-67
2021/10/31 15:37:08;;;;;;;15.60;9.60;;;18.40;98.10;;;;;;5070350;28;20504;-67
2021/10/31 15:40:12;;;;;;;17.88;9.85;;;18.40;98.10;;;;;;5069967;28;20039;-69
2021/10/31 15:43:16;;;;;;;19.15;11.15;;;18.50;98.60;;;;;;5070376;28;20047;-69
2021/10/31 15:46:22;;;;;;;17.08;10.52;;;18.40;98.50;;;;;;5069688;28;20521;-69
2021/10/31 15:49:26;;;;;;;21.17;12.50;;;18.30;98.80;;;;;;5068775;28;20059;-69
2021/10/31 15:52:30;;;;;;;21.13;12.55;;;18.20;99.60;;;;;;5070628;28;20486;-68
2021/10/31 15:55:34;;;;;;;20.40;13.40;;;18.10;99.80;;;;;;5070267;28;20039;-68